Time;durP1;ratioP1;P1;durP2;ratioP2;P2;SDS_P1;SDS_P2;PMS_P1;PMS_P2;Temp;Humidity;BMP_temperature;BMP_pressure;BME280_temperature;BME280_humidity;BME280_pressure;Samples;Min_cycle;Max_cycle;Signal;HPM_P1;HPM_P2
2022/02/08 00:02:09;;;;;;;7.28;1.80;;;18.80;99.90;;;;;;5075539;28;20012;-73
2022/02/08 00:04:36;;;;;;;6.22;2.13;;;18.90;99.90;;;;;;5075826;28;20048;-73
2022/02/08 00:07:06;;;;;;;7.63;2.05;;;19.10;99.90;;;;;;5075450;28;20385;-73
2022/02/08 00:09:35;;;;;;;5.50;1.35;;;19.30;99.90;;;;;;5075455;28;20017;-73
2022/02/08 00:12:03;;;;;;;5.55;1.33;;;19.50;99.90;;;;;;5073977;28;20378;-73
2022/02/08 00:14:30;;;;;;;6.38;1.75;;;19.80;99.90;;;;;;5073990;28;20025;-75
2022/02/08 00:16:58;;;;;;;6.05;1.80;;;19.80;99.90;;;;;;5075035;28;20044;-73
2022/02/08 00:19:25;;;;;;;5.47;1.95;;;19.90;99.90;;;;;;5072934;28;20063;-73
2022/02/08 00:21:52;;;;;;;7.70;1.35;;;20.10;99.90;;;;;;5075155;28;20017;-74
2022/02/08 00:24:20;;;;;;;4.95;1.30;;;20.10;99.90;;;;;;5075497;28;20465;-73
2022/02/08 00:26:47;;;;;;;4.95;1.60;;;20.10;99.90;;;;;;5075136;28;20016;-74
2022/02/08 00:29:15;;;;;;;7.53;1.42;;;20.30;99.90;;;;;;5075080;28;20073;-74
2022/02/08 00:31:42;;;;;;;6.63;1.30;;;20.40;99.90;;;;;;5074976;28;20441;-74
2022/02/08 00:34:09;;;;;;;6.05;1.50;;;20.60;99.90;;;;;;5075104;28;20098;-74
2022/02/08 00:36:37;;;;;;;6.75;1.40;;;20.50;99.90;;;;;;5073536;28;20062;-74
2022/02/08 00:39:07;;;;;;;6.32;1.40;;;20.40;99.90;;;;;;5073576;28;20029;-74
2022/02/08 00:41:35;;;;;;;;;;;20.60;99.90;;;;;;5075295;28;20020;-74
2022/02/08 00:44:09;;;;;;;5.43;1.30;;;20.80;99.90;;;;;;5073506;28;19911;-74
2022/02/08 00:47:10;;;;;;;7.22;1.27;;;20.90;99.90;;;;;;5073412;28;20024;-74
2022/02/08 00:49:40;;;;;;;6.82;1.45;;;21.10;99.90;;;;;;5074783;28;20020;-73
2022/02/08 00:52:14;;;;;;;6.47;1.13;;;21.20;99.90;;;;;;5074746;28;20166;-74
2022/02/08 00:54:47;;;;;;;6.95;1.40;;;21.40;99.90;;;;;;5074466;28;20113;-73
2022/02/08 00:57:15;;;;;;;5.07;1.20;;;21.40;99.90;;;;;;5074486;28;20099;-74
2022/02/08 00:59:42;;;;;;;6.93;1.30;;;21.40;99.90;;;;;;5074438;28;20028;-74
2022/02/08 01:02:10;;;;;;;4.95;1.35;;;21.10;99.90;;;;;;5074352;28;20016;-74
2022/02/08 01:04:38;;;;;;;7.32;1.23;;;21.00;99.90;;;;;;5072988;28;20429;-73
2022/02/08 01:07:07;;;;;;;8.77;1.65;;;20.90;99.90;;;;;;5072878;28;20017;-74
2022/02/08 01:09:46;;;;;;;5.28;1.30;;;20.90;99.90;;;;;;5072936;28;20035;-73
2022/02/08 01:12:15;;;;;;;3.85;1.20;;;20.90;99.90;;;;;;5074210;28;20021;-73
2022/02/08 01:14:44;;;;;;;5.45;1.30;;;20.80;99.90;;;;;;5072796;28;20082;-74
2022/02/08 01:17:13;;;;;;;5.13;1.42;;;20.80;99.90;;;;;;5073933;28;20040;-73
2022/02/08 01:20:07;;;;;;;4.30;1.30;;;20.90;99.90;;;;;;5073926;28;20119;-73
2022/02/08 01:22:28;;;;;;;4.40;0.95;;;21.20;99.90;;;;;;5073437;28;20035;-73
2022/02/08 01:24:56;;;;;;;6.97;1.85;;;21.60;99.90;;;;;;5072587;28;20048;-74
2022/02/08 01:27:28;;;;;;;5.80;1.30;;;21.80;99.90;;;;;;5073962;28;20103;-74
2022/02/08 01:29:59;;;;;;;7.10;2.00;;;21.80;99.90;;;;;;5073819;28;20024;-74
2022/02/08 01:37:57;;;;;;;4.68;1.02;;;22.20;99.90;;;;;;5074027;28;20074;-73
2022/02/08 01:40:35;;;;;;;7.45;1.42;;;22.10;99.90;;;;;;5073522;28;20024;-72
2022/02/08 01:48:49;;;;;;;6.22;1.77;;;22.20;99.90;;;;;;5057107;28;20120;-73
2022/02/08 01:51:17;;;;;;;6.20;1.33;;;22.20;99.90;;;;;;5072171;28;20375;-73
2022/02/08 01:53:45;;;;;;;5.18;1.27;;;22.20;99.90;;;;;;5073311;28;20120;-72
2022/02/08 01:56:12;;;;;;;5.80;1.23;;;22.50;99.90;;;;;;5073364;28;20050;-72
2022/02/08 01:58:40;;;;;;;5.45;1.20;;;22.80;99.90;;;;;;5071771;28;20371;-73
2022/02/08 02:01:08;;;;;;;4.43;0.88;;;23.00;99.90;;;;;;5073249;28;20017;-73
2022/02/08 02:03:38;;;;;;;5.47;1.38;;;23.70;99.90;;;;;;5073123;28;20016;-73
2022/02/08 02:06:05;;;;;;;5.22;1.25;;;24.10;99.90;;;;;;5073219;28;20013;-73
2022/02/08 02:08:33;;;;;;;3.72;1.38;;;24.30;99.90;;;;;;5073019;28;20020;-73
2022/02/08 02:11:00;;;;;;;6.80;1.17;;;24.30;99.90;;;;;;5073114;28;20052;-73
2022/02/08 02:13:48;;;;;;;4.35;1.40;;;24.10;99.90;;;;;;5073094;28;20496;-73
2022/02/08 02:16:26;;;;;;;3.92;1.08;;;24.40;99.90;;;;;;5071598;28;20451;-73
2022/02/08 02:18:53;;;;;;;4.82;1.45;;;24.70;99.90;;;;;;5072875;28;20024;-73
2022/02/08 02:21:21;;;;;;;5.15;1.17;;;23.90;99.90;;;;;;5072986;28;20455;-73
2022/02/08 02:23:49;;;;;;;5.70;1.30;;;23.50;99.90;;;;;;5072971;28;20051;-73
2022/02/08 02:26:17;;;;;;;5.90;1.25;;;24.00;99.90;;;;;;5072905;28;20016;-73
2022/02/08 02:28:44;;;;;;;6.18;1.17;;;24.60;99.90;;;;;;5071592;28;20040;-73
2022/02/08 02:31:12;;;;;;;3.75;1.30;;;24.90;99.90;;;;;;5072777;28;20081;-74
2022/02/08 02:33:39;;;;;;;3.63;1.23;;;25.30;99.90;;;;;;5072951;28;20039;-74
2022/02/08 02:36:07;;;;;;;5.20;1.75;;;25.90;99.90;;;;;;5073022;28;20496;-74
2022/02/08 02:38:34;;;;;;;6.78;1.20;;;26.00;99.90;;;;;;5071464;28;20033;-73
2022/02/08 02:41:02;;;;;;;5.70;1.48;;;25.60;99.90;;;;;;5072173;28;20031;-74
2022/02/08 02:43:29;;;;;;;6.18;1.50;;;25.20;99.90;;;;;;5072775;28;20024;-74
2022/02/08 02:46:00;;;;;;;4.85;1.58;;;24.90;99.90;;;;;;5072601;28;20024;-73
2022/02/08 02:48:27;;;;;;;7.15;1.30;;;24.50;99.90;;;;;;5072783;28;20462;-73
2022/02/08 02:50:55;;;;;;;4.05;1.00;;;24.10;99.90;;;;;;5072644;28;20051;-74
2022/02/08 02:53:26;;;;;;;6.22;1.30;;;24.00;99.90;;;;;;5071466;28;20028;-74
2022/02/08 02:55:54;;;;;;;5.63;1.52;;;24.10;99.90;;;;;;5071336;28;20025;-73
2022/02/08 02:58:26;;;;;;;8.10;1.45;;;25.20;99.90;;;;;;5072548;28;20024;-74
2022/02/08 03:25:41;;;;;;;6.43;1.42;;;25.60;99.90;;;;;;5090385;27;20401;-75
2022/02/08 03:28:08;;;;;;;4.50;1.13;;;26.80;99.90;;;;;;5090565;28;20396;-74
2022/02/08 03:30:37;;;;;;;4.93;0.93;;;26.60;99.90;;;;;;5090318;28;20020;-75
2022/02/08 03:33:04;;;;;;;5.72;1.48;;;27.00;99.90;;;;;;5090127;28;20547;-75
2022/02/08 03:35:31;;;;;;;6.15;1.35;;;26.90;99.90;;;;;;5090200;28;20470;-75
2022/02/08 03:38:03;;;;;;;3.95;1.00;;;27.10;99.90;;;;;;5088855;28;20020;-75
2022/02/08 03:40:45;;;;;;;5.82;1.30;;;27.20;99.90;;;;;;5090202;28;20108;-75
2022/02/08 03:43:26;;;;;;;7.38;1.10;;;27.60;99.90;;;;;;5088862;28;20111;-75
2022/02/08 03:45:58;;;;;;;4.68;0.93;;;27.40;99.90;;;;;;5090049;28;20028;-75
2022/02/08 03:48:28;;;;;;;7.88;1.38;;;27.60;99.90;;;;;;5090068;28;20032;-75
2022/02/08 03:51:06;;;;;;;5.03;1.02;;;27.40;99.90;;;;;;5090158;28;20504;-75
2022/02/08 03:53:34;;;;;;;7.75;1.35;;;27.50;99.90;;;;;;5088708;28;20029;-75
2022/02/08 03:56:02;;;;;;;7.97;1.60;;;27.60;99.90;;;;;;5089820;28;20389;-74
2022/02/08 03:58:29;;;;;;;7.13;1.63;;;27.50;99.90;;;;;;5089905;28;20017;-75
2022/02/08 04:03:57;;;;;;;8.60;1.50;;;27.70;99.90;;;;;;5089792;28;20035;-75
2022/02/08 04:06:24;;;;;;;6.93;1.23;;;27.50;99.90;;;;;;5089792;28;20032;-76
2022/02/08 04:08:52;;;;;;;3.28;0.80;;;27.50;99.90;;;;;;5089764;28;20016;-75
2022/02/08 04:11:19;;;;;;;6.53;1.10;;;27.30;99.90;;;;;;5089611;28;20059;-75
2022/02/08 04:13:56;;;;;;;3.00;0.70;;;27.50;99.90;;;;;;5088146;28;20027;-75
2022/02/08 04:16:28;;;;;;;6.28;1.00;;;27.50;99.90;;;;;;5088393;28;20115;-74
2022/02/08 04:38:40;;;;;;;2.28;0.85;;;27.60;99.90;;;;;;5031711;28;20521;-75
2022/02/08 04:41:15;;;;;;;6.13;1.58;;;27.60;99.90;;;;;;5069675;28;20044;-75
2022/02/08 04:46:27;;;;;;;7.43;1.13;;;27.20;99.90;;;;;;5075573;28;20020;-75
2022/02/08 04:48:56;;;;;;;3.85;0.70;;;26.60;99.90;;;;;;5075490;28;20017;-75
2022/02/08 04:54:14;;;;;;;6.47;0.98;;;26.60;99.90;;;;;;5075312;28;20036;-75
2022/02/08 04:59:50;;;;;;;2.90;0.82;;;26.20;99.90;;;;;;5075271;28;20031;-74
2022/02/08 05:26:35;;;;;;;6.15;1.10;;;26.40;99.90;;;;;;5075044;28;20105;-75
2022/02/08 05:40:36;;;;;;;2.40;0.57;;;27.00;99.90;;;;;;5073453;28;20092;-75
2022/02/08 05:43:27;;;;;;;3.22;0.80;;;27.10;99.90;;;;;;5074404;28;20078;-75
2022/02/08 05:48:30;;;;;;;4.13;0.80;;;27.10;99.90;;;;;;5074297;28;20111;-75
2022/02/08 05:51:05;;;;;;;3.72;0.82;;;27.10;99.90;;;;;;5072925;28;20021;-74
2022/02/08 05:53:45;;;;;;;4.18;1.00;;;27.00;99.90;;;;;;5074159;28;20385;-74
2022/02/08 05:56:15;;;;;;;5.28;0.85;;;26.60;99.90;;;;;;5072885;28;20079;-76
2022/02/08 05:58:44;;;;;;;4.15;0.95;;;26.90;99.90;;;;;;5073941;28;20021;-74
2022/02/08 06:01:13;;;;;;;3.63;0.93;;;26.90;99.90;;;;;;5074009;28;20516;-75
2022/02/08 06:03:41;;;;;;;4.22;0.73;;;26.80;99.90;;;;;;5073714;28;20028;-74
2022/02/08 06:06:08;;;;;;;3.97;0.73;;;26.80;99.90;;;;;;5072653;28;20036;-74
2022/02/08 06:08:36;;;;;;;5.30;1.00;;;27.00;99.90;;;;;;5074057;28;20052;-73
2022/02/08 06:11:13;;;;;;;4.00;0.73;;;26.90;99.90;;;;;;5072290;28;20028;-74
2022/02/08 06:13:41;;;;;;;3.10;0.60;;;27.00;99.90;;;;;;5072419;28;20047;-74
2022/02/08 06:16:17;;;;;;;5.53;0.70;;;26.60;99.90;;;;;;5072210;28;20111;-73
2022/02/08 06:18:44;;;;;;;4.10;0.80;;;25.80;99.90;;;;;;5072063;28;20109;-73
2022/02/08 06:21:12;;;;;;;5.38;1.05;;;25.00;99.90;;;;;;5073298;28;20410;-74
2022/02/08 06:23:40;;;;;;;3.92;0.80;;;24.80;99.90;;;;;;5071818;28;20056;-74
2022/02/08 06:26:08;;;;;;;5.03;0.75;;;25.20;99.90;;;;;;5073522;28;20064;-74
2022/02/08 06:28:35;;;;;;;4.63;1.05;;;25.80;99.90;;;;;;5073457;28;20107;-74
2022/02/08 06:31:03;;;;;;;6.68;0.90;;;26.20;99.90;;;;;;5073365;28;20031;-74
2022/02/08 06:33:30;;;;;;;3.00;0.73;;;26.40;99.90;;;;;;5071946;28;20468;-73
2022/02/08 06:35:57;;;;;;;5.32;0.85;;;26.20;99.90;;;;;;5071992;28;20027;-73
2022/02/08 06:38:25;;;;;;;3.78;0.88;;;25.50;99.90;;;;;;5073381;28;20021;-74
2022/02/08 06:40:54;;;;;;;5.47;1.00;;;25.00;99.90;;;;;;5073087;28;20027;-74
2022/02/08 06:43:21;;;;;;;4.20;0.70;;;24.80;99.90;;;;;;5073186;28;20051;-73
2022/02/08 06:45:49;;;;;;;4.20;0.80;;;24.40;99.90;;;;;;5073219;28;20024;-73
2022/02/08 06:48:17;;;;;;;4.18;0.75;;;24.20;99.90;;;;;;5073149;28;20477;-74
2022/02/08 06:50:44;;;;;;;4.28;0.90;;;25.10;99.90;;;;;;5071910;28;20056;-74
2022/02/08 06:53:11;;;;;;;5.00;0.80;;;26.20;99.90;;;;;;5073095;28;20024;-73
2022/02/08 06:55:39;;;;;;;4.55;0.70;;;26.90;99.90;;;;;;5073012;28;20059;-74
2022/02/08 06:58:09;;;;;;;3.65;0.93;;;27.70;99.90;;;;;;5071798;28;20085;-74
2022/02/08 07:00:39;;;;;;;5.60;0.70;;;27.50;99.90;;;;;;5073139;28;20081;-74
2022/02/08 07:03:17;;;;;;;4.53;0.80;;;27.30;99.90;;;;;;5071816;28;20025;-74
2022/02/08 07:05:45;;;;;;;6.28;1.08;;;26.40;99.90;;;;;;5073277;28;20021;-74
2022/02/08 07:08:12;;;;;;;3.67;0.77;;;26.10;99.90;;;;;;5072900;28;20021;-74
2022/02/08 07:10:42;;;;;;;4.97;1.00;;;26.30;99.90;;;;;;5072977;28;20028;-75
2022/02/08 07:13:09;;;;;;;4.53;0.95;;;26.10;99.90;;;;;;5072755;28;20017;-76
2022/02/08 07:15:37;;;;;;;5.05;0.90;;;26.20;99.90;;;;;;5072905;28;20481;-75
2022/02/08 07:18:05;;;;;;;4.90;0.88;;;26.50;99.90;;;;;;5071453;28;20020;-75
2022/02/08 07:20:32;;;;;;;7.15;1.10;;;25.80;99.90;;;;;;5072997;28;20118;-75
2022/02/08 07:22:59;;;;;;;4.90;0.70;;;25.30;99.90;;;;;;5072958;28;20104;-75
2022/02/08 07:25:27;;;;;;;4.65;0.88;;;24.80;99.90;;;;;;5072970;28;20056;-72
2022/02/08 07:27:55;;;;;;;2.33;0.60;;;25.10;99.90;;;;;;5072718;28;20074;-73
2022/02/08 07:30:23;;;;;;;3.75;0.80;;;25.90;99.90;;;;;;5072802;28;20105;-74
2022/02/08 07:32:53;;;;;;;2.25;0.60;;;26.00;99.90;;;;;;5073114;28;20024;-73
2022/02/08 07:35:30;;;;;;;5.43;0.85;;;25.50;99.90;;;;;;5072855;28;20028;-73
2022/02/08 07:38:09;;;;;;;3.80;0.65;;;25.20;99.90;;;;;;5071541;28;20028;-74
2022/02/08 07:43:05;;;;;;;3.05;0.65;;;24.80;99.90;;;;;;5072580;28;20473;-73
2022/02/08 07:45:32;;;;;;;5.53;0.60;;;24.60;99.90;;;;;;5072748;28;20071;-74
2022/02/08 07:47:59;;;;;;;2.78;0.60;;;24.40;99.90;;;;;;5072419;28;20021;-73
2022/02/08 07:50:28;;;;;;;3.03;0.70;;;24.20;99.90;;;;;;5071262;28;20228;-74
2022/02/08 07:52:55;;;;;;;4.30;0.80;;;24.00;99.90;;;;;;5072644;28;20040;-74
2022/02/08 07:55:23;;;;;;;3.65;1.23;;;23.80;99.90;;;;;;5072566;28;20091;-74
2022/02/08 07:57:51;;;;;;;4.68;1.70;;;23.60;99.90;;;;;;5072526;28;20024;-74
2022/02/08 08:00:19;;;;;;;3.95;0.65;;;23.50;99.90;;;;;;5073455;28;20074;-73
2022/02/08 08:02:46;;;;;;;4.00;0.70;;;23.40;99.90;;;;;;5074862;28;20048;-73
2022/02/08 08:05:14;;;;;;;5.03;0.90;;;23.10;99.90;;;;;;5076237;28;20028;-73
2022/02/08 08:07:41;;;;;;;4.05;0.70;;;23.10;99.90;;;;;;5076075;28;20497;-74
2022/02/08 08:10:11;;;;;;;4.53;1.00;;;22.90;99.90;;;;;;5076137;28;20036;-73
2022/02/08 08:12:45;;;;;;;3.60;1.00;;;22.80;99.90;;;;;;5075934;28;20118;-73
2022/02/08 08:15:27;;;;;;;5.20;1.15;;;22.70;99.90;;;;;;5074589;28;20036;-74
2022/02/08 08:18:13;;;;;;;5.03;1.13;;;22.70;99.90;;;;;;5075942;28;20489;-73
2022/02/08 08:20:41;;;;;;;2.20;0.80;;;22.60;99.90;;;;;;5074812;28;20033;-74
2022/02/08 08:23:09;;;;;;;3.90;0.80;;;22.50;99.90;;;;;;5075718;28;20543;-74
2022/02/08 08:25:36;;;;;;;6.85;1.00;;;22.40;99.90;;;;;;5075798;28;20065;-74
2022/02/08 08:28:04;;;;;;;3.47;0.85;;;22.30;99.90;;;;;;5075730;28;20021;-74
2022/02/08 08:30:32;;;;;;;3.45;0.80;;;22.20;99.90;;;;;;5075544;28;20020;-74
2022/02/08 08:32:59;;;;;;;3.70;0.77;;;22.00;99.90;;;;;;5075537;28;20461;-74
2022/02/08 08:35:26;;;;;;;4.90;1.42;;;22.00;99.90;;;;;;5074023;28;20477;-73
2022/02/08 08:38:01;;;;;;;4.63;1.20;;;21.90;99.90;;;;;;5075467;28;20020;-73
2022/02/08 08:51:15;;;;;;;5.28;0.82;;;21.50;99.90;;;;;;5075243;28;20032;-73
2022/02/08 08:53:44;;;;;;;4.15;1.13;;;21.30;99.90;;;;;;5075160;28;20492;-73
2022/02/08 08:56:12;;;;;;;5.72;1.20;;;21.20;99.90;;;;;;5074937;28;20016;-73
2022/02/08 08:58:44;;;;;;;4.55;1.05;;;21.10;99.90;;;;;;5073458;28;20017;-74
2022/02/08 09:01:12;;;;;;;5.18;1.13;;;21.10;99.90;;;;;;5073588;28;20021;-74
2022/02/08 09:03:41;;;;;;;5.05;0.95;;;21.10;99.90;;;;;;5074894;28;20025;-74
2022/02/08 09:06:09;;;;;;;7.40;1.30;;;21.00;99.90;;;;;;5073374;28;20024;-73
2022/02/08 09:08:40;;;;;;;6.35;1.27;;;20.90;99.90;;;;;;5074750;28;20024;-74
2022/02/08 09:11:21;;;;;;;3.83;0.90;;;20.80;99.90;;;;;;5073424;28;20029;-74
2022/02/08 09:14:02;;;;;;;5.45;1.38;;;20.80;99.90;;;;;;5074683;28;20020;-74
2022/02/08 09:16:49;;;;;;;;;;;20.70;99.90;;;;;;5075266;28;20078;-73
2022/02/08 09:19:41;;;;;;;7.95;1.30;;;20.60;99.90;;;;;;5074690;28;19904;-74
2022/02/08 09:25:13;;;;;;;4.47;1.15;;;20.50;99.90;;;;;;5074599;28;20115;-73
2022/02/08 09:30:19;;;;;;;4.65;1.40;;;20.40;99.90;;;;;;5074921;28;20024;-74
2022/02/08 09:32:53;;;;;;;4.68;1.23;;;20.30;99.90;;;;;;5074671;28;20029;-73
2022/02/08 09:35:21;;;;;;;4.10;1.08;;;20.30;99.90;;;;;;5073332;28;20036;-73
2022/02/08 09:37:49;;;;;;;4.30;1.05;;;20.20;99.90;;;;;;5074289;28;20052;-73
2022/02/08 09:40:19;;;;;;;6.78;1.63;;;20.10;99.90;;;;;;5074582;28;20119;-73
2022/02/08 09:42:53;;;;;;;2.72;1.20;;;20.10;99.90;;;;;;5073473;28;20021;-74
2022/02/08 09:45:22;;;;;;;4.07;1.00;;;20.10;99.90;;;;;;5073373;28;20062;-73
2022/02/08 09:48:01;;;;;;;4.28;1.15;;;20.10;99.90;;;;;;5074302;28;20025;-73
2022/02/08 09:50:33;;;;;;;6.95;1.60;;;20.00;99.90;;;;;;5074396;28;20031;-73
2022/02/08 09:53:02;;;;;;;6.03;1.15;;;20.00;99.90;;;;;;5074075;28;20024;-73
2022/02/08 09:55:38;;;;;;;4.40;1.60;;;20.10;99.90;;;;;;5074251;28;20016;-73
2022/02/08 09:58:07;;;;;;;5.32;1.35;;;20.10;99.90;;;;;;5072983;28;20440;-73
2022/02/08 10:00:37;;;;;;;4.03;1.17;;;20.20;99.90;;;;;;5072821;28;20119;-74
2022/02/08 10:03:11;;;;;;;2.53;1.25;;;20.10;99.90;;;;;;5073010;28;20021;-76
2022/02/08 10:05:52;;;;;;;3.58;0.98;;;20.10;99.90;;;;;;5072794;28;20560;-75
2022/02/08 10:08:20;;;;;;;4.38;0.90;;;20.10;99.90;;;;;;5072748;28;20021;-76
2022/02/08 10:10:47;;;;;;;5.65;0.95;;;20.20;99.90;;;;;;5072875;28;20059;-75
2022/02/08 10:13:44;;;;;;;4.85;1.45;;;20.10;99.90;;;;;;5073845;28;20027;-74
2022/02/08 10:19:18;;;;;;;3.88;1.27;;;20.20;99.90;;;;;;5073836;28;20103;-75
2022/02/08 10:21:48;;;;;;;6.03;1.30;;;20.20;99.90;;;;;;5073746;28;20046;-77
2022/02/08 10:24:20;;;;;;;4.50;1.10;;;20.20;99.90;;;;;;5071816;28;20056;-76
2022/02/08 10:37:47;;;;;;;9.15;1.45;;;20.10;99.90;;;;;;5073863;28;20026;-76
2022/02/08 10:40:18;;;;;;;6.65;1.48;;;20.00;99.90;;;;;;5072226;28;20028;-76
2022/02/08 10:43:15;;;;;;;4.90;0.90;;;19.90;99.90;;;;;;5073638;28;20063;-76
2022/02/08 10:45:43;;;;;;;8.40;1.70;;;19.80;99.90;;;;;;5071779;28;20043;-76
2022/02/08 10:48:22;;;;;;;4.30;1.45;;;19.90;99.90;;;;;;5072283;28;20025;-76
2022/02/08 10:50:55;;;;;;;6.22;1.17;;;19.80;99.90;;;;;;5073520;28;20558;-76
2022/02/08 10:53:25;;;;;;;7.13;1.30;;;19.70;99.90;;;;;;5071957;28;20028;-76
2022/02/08 10:56:01;;;;;;;;;;;;;;;;;;;;;
2022/02/08 10:58:48;;;;;;;7.05;1.58;;;19.60;99.90;;;;;;5073477;28;20494;-76
2022/02/08 11:01:19;;;;;;;4.53;1.10;;;19.60;99.90;;;;;;5073150;28;20024;-76
2022/02/08 11:03:57;;;;;;;4.20;1.20;;;19.60;99.90;;;;;;5073353;28;20028;-76
2022/02/08 11:06:30;;;;;;;7.35;1.63;;;19.50;99.90;;;;;;5073128;28;20064;-76
2022/02/08 11:09:10;;;;;;;7.22;1.45;;;19.50;99.90;;;;;;5071854;28;20123;-76
2022/02/08 11:11:52;;;;;;;;;;;19.40;99.90;;;;;;5072189;28;20031;-76
2022/02/08 11:14:42;;;;;;;6.63;1.33;;;19.40;99.90;;;;;;5073086;28;19916;-76
2022/02/08 11:22:43;;;;;;;6.10;1.58;;;19.30;99.90;;;;;;5073184;28;20028;-76
2022/02/08 11:25:36;;;;;;;5.93;1.77;;;19.30;99.90;;;;;;5072704;28;20045;-76
2022/02/08 11:28:16;;;;;;;7.32;2.00;;;19.30;99.90;;;;;;5071762;28;20032;-75
2022/02/08 11:31:01;;;;;;;6.07;1.48;;;19.30;99.90;;;;;;5071910;28;20082;-75
2022/02/08 11:45:07;;;;;;;5.50;1.10;;;19.10;99.90;;;;;;5077014;28;20056;-75
2022/02/08 11:53:22;;;;;;;6.38;1.38;;;19.00;99.90;;;;;;5076661;28;20020;-76
2022/02/08 11:59:04;;;;;;;7.07;1.73;;;18.90;99.90;;;;;;5076589;28;20109;-76
2022/02/08 12:02:26;;;;;;;5.78;1.25;;;18.90;99.90;;;;;;5076422;28;20054;-75
2022/02/08 12:04:54;;;;;;;4.88;1.35;;;18.80;99.90;;;;;;5076340;28;20090;-75
2022/02/08 12:07:20;;;;;;;3.83;0.90;;;18.90;99.90;;;;;;5076312;28;20025;-76
2022/02/08 12:09:58;;;;;;;4.68;1.40;;;18.80;99.90;;;;;;5076289;28;20478;-76
2022/02/08 12:12:44;;;;;;;4.50;1.00;;;18.80;99.90;;;;;;5076188;28;20478;-75
2022/02/08 12:32:33;;;;;;;5.93;1.10;;;18.70;99.90;;;;;;5076021;28;20489;-76
2022/02/08 12:35:26;;;;;;;7.60;1.40;;;18.70;99.90;;;;;;5075840;28;20077;-76
2022/02/08 14:06:28;;;;;;;3.78;0.95;;;17.90;99.90;;;;;;5074480;28;20076;-74
2022/02/08 14:09:03;;;;;;;5.03;1.25;;;17.90;99.90;;;;;;5074100;28;20025;-74
2022/02/08 14:14:42;;;;;;;5.47;1.00;;;17.90;99.90;;;;;;5074076;28;20025;-75
2022/02/08 14:23:10;;;;;;;6.28;1.75;;;17.90;99.90;;;;;;5073768;28;20032;-75
2022/02/08 14:25:49;;;;;;;6.35;1.13;;;17.90;99.90;;;;;;5073756;28;20078;-75
2022/02/08 14:31:23;;;;;;;7.20;1.98;;;17.90;99.90;;;;;;5073548;28;20019;-75
2022/02/08 14:34:10;;;;;;;8.77;2.63;;;17.80;99.90;;;;;;5073371;28;20039;-76
2022/02/08 14:36:48;;;;;;;4.07;1.58;;;17.80;99.90;;;;;;5073339;28;20028;-76
2022/02/08 15:09:52;;;;;;;4.25;1.10;;;17.90;99.90;;;;;;5079456;28;20108;-75
2022/02/08 15:12:21;;;;;;;6.43;1.30;;;17.80;99.90;;;;;;5072859;28;20390;-75
2022/02/08 15:14:58;;;;;;;3.70;0.98;;;17.80;99.90;;;;;;5072608;28;20031;-75
2022/02/08 15:17:25;;;;;;;4.30;0.95;;;17.80;99.90;;;;;;5072794;28;20021;-75
2022/02/08 15:19:54;;;;;;;2.58;0.95;;;17.70;99.90;;;;;;5072756;28;20044;-74
2022/02/08 15:22:22;;;;;;;6.40;1.30;;;17.70;99.90;;;;;;5072736;28;20023;-75
2022/02/08 15:24:49;;;;;;;5.32;1.45;;;17.70;99.90;;;;;;5071174;28;20060;-75
2022/02/08 15:27:16;;;;;;;7.78;1.77;;;17.70;99.90;;;;;;5071380;28;20025;-75
2022/02/08 15:29:44;;;;;;;6.05;1.30;;;17.70;99.90;;;;;;5072738;28;20539;-75
2022/02/08 15:32:15;;;;;;;4.78;1.52;;;17.70;99.90;;;;;;5071255;28;20103;-75
2022/02/08 15:34:43;;;;;;;5.82;1.52;;;17.60;99.90;;;;;;5071441;28;20036;-75
2022/02/08 15:37:12;;;;;;;4.72;1.33;;;17.60;99.90;;;;;;5072743;28;20452;-75
2022/02/08 15:39:40;;;;;;;6.55;1.70;;;17.60;99.90;;;;;;5072693;28;20096;-75
2022/02/08 15:42:08;;;;;;;4.75;1.35;;;17.50;99.90;;;;;;5072820;28;20020;-75
2022/02/08 15:44:35;;;;;;;6.25;2.03;;;17.50;99.90;;;;;;5071474;28;20029;-75
2022/02/08 15:47:07;;;;;;;7.05;2.50;;;17.40;99.90;;;;;;5072838;28;20103;-75
2022/02/08 15:49:42;;;;;;;8.10;2.75;;;17.40;99.90;;;;;;5071462;28;20112;-75
2022/02/08 15:55:01;;;;;;;5.97;2.00;;;17.30;99.90;;;;;;5069601;28;20044;-75
2022/02/08 16:00:36;;;;;;;3.92;2.08;;;17.20;99.90;;;;;;5072855;28;20086;-75
2022/02/08 16:08:44;;;;;;;5.57;2.20;;;17.00;99.90;;;;;;5072510;28;20103;-75
2022/02/08 16:12:10;;;;;;;6.38;2.72;;;17.00;99.90;;;;;;5071343;28;20029;-75
2022/02/08 16:14:10;;;;;;;6.45;2.10;;;17.00;99.90;;;;;;5075139;28;20040;-75
2022/02/08 16:17:02;;;;;;;4.07;2.40;;;17.00;99.90;;;;;;5071279;28;20029;-75
2022/02/08 16:19:46;;;;;;;6.43;3.00;;;16.90;99.90;;;;;;5071278;28;20028;-75
2022/02/08 16:30:21;;;;;;;3.55;1.55;;;16.80;99.90;;;;;;5075900;28;20505;-74
2022/02/08 16:57:09;;;;;;;5.10;1.00;;;16.60;99.90;;;;;;5075535;28;20502;-75
2022/02/08 16:59:39;;;;;;;4.38;0.98;;;16.60;99.90;;;;;;5074205;28;20051;-76
2022/02/08 17:02:08;;;;;;;4.30;0.93;;;16.60;99.90;;;;;;5075353;28;20031;-75
2022/02/08 17:04:36;;;;;;;3.90;1.00;;;16.60;99.90;;;;;;5075182;28;20013;-74
2022/02/08 17:07:04;;;;;;;4.90;0.88;;;16.60;99.90;;;;;;5075344;28;20092;-75
2022/02/08 17:12:18;;;;;;;5.53;1.10;;;16.60;99.90;;;;;;5075239;28;20021;-75
2022/02/08 17:15:18;;;;;;;2.75;0.98;;;16.60;99.90;;;;;;5073886;28;20029;-74
2022/02/08 17:45:42;;;;;;;2.85;0.70;;;16.70;99.90;;;;;;5074485;28;20028;-74
2022/02/08 17:48:08;;;;;;;4.00;0.85;;;16.70;99.90;;;;;;5074268;28;20359;-74
2022/02/08 17:50:36;;;;;;;5.22;0.77;;;16.60;99.90;;;;;;5074344;28;20103;-75
2022/02/08 17:53:04;;;;;;;3.78;1.00;;;16.60;99.90;;;;;;5074411;28;20023;-75
2022/02/08 17:55:32;;;;;;;3.58;0.73;;;16.60;99.90;;;;;;5074163;28;20388;-74
2022/02/08 17:58:02;;;;;;;4.35;0.95;;;16.60;99.90;;;;;;5074283;28;20043;-75
2022/02/08 18:00:32;;;;;;;2.50;0.60;;;16.50;99.90;;;;;;5074351;28;20031;-74
2022/02/08 18:03:12;;;;;;;4.13;0.90;;;16.50;99.90;;;;;;5072979;28;20037;-75
2022/02/08 18:05:41;;;;;;;1.80;0.70;;;16.40;99.90;;;;;;5072853;28;20413;-74
2022/02/08 18:08:11;;;;;;;5.13;0.75;;;16.40;99.90;;;;;;5072774;28;20032;-74
2022/02/08 18:10:39;;;;;;;3.35;0.60;;;16.40;99.90;;;;;;5072887;28;20025;-75
2022/02/08 18:13:10;;;;;;;5.20;0.70;;;16.40;99.90;;;;;;5072755;28;20086;-75
2022/02/08 18:15:38;;;;;;;3.72;1.00;;;16.40;99.90;;;;;;5073883;28;20029;-73
2022/02/08 18:18:17;;;;;;;4.03;0.93;;;16.40;99.90;;;;;;5072515;28;20106;-73
2022/02/08 18:20:50;;;;;;;4.65;1.08;;;16.40;99.90;;;;;;5073903;28;20074;-75
2022/02/08 19:05:15;;;;;;;4.95;0.90;;;16.20;99.90;;;;;;5073330;28;20032;-74
2022/02/08 19:10:49;;;;;;;3.88;0.90;;;16.10;99.90;;;;;;5051000;28;20021;-74
2022/02/08 19:20:54;;;;;;;3.13;0.98;;;16.10;99.90;;;;;;5073230;28;20017;-73
2022/02/08 19:23:22;;;;;;;4.07;0.95;;;16.10;99.90;;;;;;5071386;28;20028;-74
2022/02/08 19:25:49;;;;;;;4.88;1.20;;;16.10;99.90;;;;;;5072837;28;20032;-74
2022/02/08 19:28:17;;;;;;;4.15;1.35;;;16.00;99.90;;;;;;5071618;28;20020;-74
2022/02/08 19:30:44;;;;;;;3.92;1.90;;;16.00;99.90;;;;;;5072930;28;20211;-74
2022/02/08 19:33:11;;;;;;;4.03;1.13;;;16.00;99.90;;;;;;5071624;28;20478;-74
2022/02/08 19:35:41;;;;;;;2.53;1.02;;;16.00;99.90;;;;;;5072609;28;20051;-74
2022/02/08 19:38:11;;;;;;;3.60;1.23;;;16.00;99.90;;;;;;5071353;28;20116;-74
2022/02/08 19:40:38;;;;;;;6.05;1.67;;;16.00;99.90;;;;;;5071468;28;20029;-74
2022/02/08 19:43:06;;;;;;;4.65;1.25;;;16.00;99.90;;;;;;5072632;28;20047;-74
2022/02/08 19:45:40;;;;;;;2.92;0.82;;;15.90;99.90;;;;;;5072559;28;20035;-73
2022/02/08 19:48:08;;;;;;;4.60;1.08;;;15.90;99.90;;;;;;5071634;28;20025;-74
2022/02/08 19:50:39;;;;;;;2.92;0.80;;;15.90;99.90;;;;;;5072485;28;20470;-74
2022/02/08 19:53:07;;;;;;;6.93;0.82;;;15.90;99.90;;;;;;5072592;28;20037;-74
2022/02/08 19:55:43;;;;;;;3.78;0.77;;;15.90;99.90;;;;;;5071157;28;20056;-74
2022/02/08 19:58:24;;;;;;;5.18;1.02;;;16.00;99.90;;;;;;5076440;28;20017;-74
2022/02/08 20:03:31;;;;;;;2.95;1.20;;;16.10;99.90;;;;;;5076226;28;20020;-74
2022/02/08 20:05:58;;;;;;;3.75;0.98;;;16.20;99.90;;;;;;5074792;28;20028;-74
2022/02/08 20:08:27;;;;;;;6.65;1.58;;;16.30;99.90;;;;;;5076100;28;20016;-74
2022/02/08 20:10:57;;;;;;;3.88;0.90;;;16.40;99.90;;;;;;5076074;28;20024;-71
2022/02/08 20:13:27;;;;;;;4.75;0.98;;;16.50;99.90;;;;;;5076083;28;20020;-72
2022/02/08 20:15:57;;;;;;;4.13;1.40;;;16.60;99.90;;;;;;5074615;28;20028;-71
2022/02/08 20:18:26;;;;;;;5.50;1.00;;;16.70;99.90;;;;;;5074664;28;20055;-72
2022/02/08 20:20:53;;;;;;;3.10;0.73;;;16.80;99.90;;;;;;5074515;28;20029;-69
2022/02/08 20:23:22;;;;;;;5.25;1.13;;;16.90;99.90;;;;;;5075602;28;20020;-70
2022/02/08 20:25:53;;;;;;;3.33;0.90;;;17.10;99.90;;;;;;5075780;28;20025;-71
2022/02/08 20:29:08;;;;;;;4.28;1.10;;;17.20;99.90;;;;;;5074650;28;20092;-70
2022/02/08 20:31:08;;;;;;;3.83;1.13;;;17.40;99.90;;;;;;5071479;28;20101;-70
2022/02/08 20:33:36;;;;;;;4.97;1.25;;;17.60;99.90;;;;;;5075702;28;20036;-70